sensor_id;sensor_type;location;lat;lon;timestamp;temperature;humidity
11399;DHT22;5755;48.116;11.608;2023-06-26T00:00:43;16.90;62.60
11399;DHT22;5755;48.116;11.608;2023-06-26T00:03:12;16.90;63.00
11399;DHT22;5755;48.116;11.608;2023-06-26T00:05:40;16.80;64.30
11399;DHT22;5755;48.116;11.608;2023-06-26T00:08:09;16.80;65.50
11399;DHT22;5755;48.116;11.608;2023-06-26T00:10:37;16.80;67.30
11399;DHT22;5755;48.116;11.608;2023-06-26T00:13:03;16.70;68.90
11399;DHT22;5755;48.116;11.608;2023-06-26T00:15:30;16.70;70.20
11399;DHT22;5755;48.116;11.608;2023-06-26T00:17:58;16.60;69.80
11399;DHT22;5755;48.116;11.608;2023-06-26T00:20:24;16.60;70.00
11399;DHT22;5755;48.116;11.608;2023-06-26T00:22:51;16.60;70.70
11399;DHT22;5755;48.116;11.608;2023-06-26T00:25:20;16.50;71.70
11399;DHT22;5755;48.116;11.608;2023-06-26T00:27:48;16.50;72.60
11399;DHT22;5755;48.116;11.608;2023-06-26T00:30:15;16.50;72.80
11399;DHT22;5755;48.116;11.608;2023-06-26T00:32:42;16.40;74.00
11399;DHT22;5755;48.116;11.608;2023-06-26T00:35:09;16.30;74.60
11399;DHT22;5755;48.116;11.608;2023-06-26T00:37:36;16.30;75.80
11399;DHT22;5755;48.116;11.608;2023-06-26T00:40:03;16.30;75.70
11399;DHT22;5755;48.116;11.608;2023-06-26T00:42:32;16.30;76.30
11399;DHT22;5755;48.116;11.608;2023-06-26T00:44:59;16.30;76.60
11399;DHT22;5755;48.116;11.608;2023-06-26T00:47:27;16.30;76.70
11399;DHT22;5755;48.116;11.608;2023-06-26T00:49:54;16.30;76.30
11399;DHT22;5755;48.116;11.608;2023-06-26T00:52:22;16.30;75.40
11399;DHT22;5755;48.116;11.608;2023-06-26T00:54:50;16.30;74.70
11399;DHT22;5755;48.116;11.608;2023-06-26T00:57:18;16.20;75.20
11399;DHT22;5755;48.116;11.608;2023-06-26T00:59:47;16.10;75.20
11399;DHT22;5755;48.116;11.608;2023-06-26T01:02:14;16.10;75.20
11399;DHT22;5755;48.116;11.608;2023-06-26T01:04:46;16.10;76.30
11399;DHT22;5755;48.116;11.608;2023-06-26T01:07:15;16.00;76.80
11399;DHT22;5755;48.116;11.608;2023-06-26T01:09:45;16.10;75.60
11399;DHT22;5755;48.116;11.608;2023-06-26T01:12:12;16.00;75.60
11399;DHT22;5755;48.116;11.608;2023-06-26T01:14:39;16.10;74.60
11399;DHT22;5755;48.116;11.608;2023-06-26T01:17:09;16.10;72.70
11399;DHT22;5755;48.116;11.608;2023-06-26T01:19:41;16.10;72.80
11399;DHT22;5755;48.116;11.608;2023-06-26T01:22:17;16.00;72.30
11399;DHT22;5755;48.116;11.608;2023-06-26T01:24:56;15.90;71.40
11399;DHT22;5755;48.116;11.608;2023-06-26T01:27:30;15.90;72.30
11399;DHT22;5755;48.116;11.608;2023-06-26T01:30:00;15.90;71.90
11399;DHT22;5755;48.116;11.608;2023-06-26T01:32:29;15.80;71.20
11399;DHT22;5755;48.116;11.608;2023-06-26T01:34:57;15.80;72.10
11399;DHT22;5755;48.116;11.608;2023-06-26T01:37:24;15.70;72.30
11399;DHT22;5755;48.116;11.608;2023-06-26T01:39:51;15.80;72.70
11399;DHT22;5755;48.116;11.608;2023-06-26T01:42:18;15.70;71.80
11399;DHT22;5755;48.116;11.608;2023-06-26T01:44:47;15.60;71.60
11399;DHT22;5755;48.116;11.608;2023-06-26T01:47:18;15.60;70.80
11399;DHT22;5755;48.116;11.608;2023-06-26T01:49:47;15.60;70.90
11399;DHT22;5755;48.116;11.608;2023-06-26T01:52:20;15.50;70.10
11399;DHT22;5755;48.116;11.608;2023-06-26T01:54:54;15.50;70.40
11399;DHT22;5755;48.116;11.608;2023-06-26T01:57:22;15.40;70.10
11399;DHT22;5755;48.116;11.608;2023-06-26T01:59:54;15.40;70.90
11399;DHT22;5755;48.116;11.608;2023-06-26T02:02:23;15.40;69.30
11399;DHT22;5755;48.116;11.608;2023-06-26T02:04:50;15.40;70.40
11399;DHT22;5755;48.116;11.608;2023-06-26T02:07:17;15.40;70.30
11399;DHT22;5755;48.116;11.608;2023-06-26T02:09:44;15.40;69.80
11399;DHT22;5755;48.116;11.608;2023-06-26T02:12:11;15.40;70.30
11399;DHT22;5755;48.116;11.608;2023-06-26T02:14:38;15.40;70.70
11399;DHT22;5755;48.116;11.608;2023-06-26T02:17:07;15.40;70.10
11399;DHT22;5755;48.116;11.608;2023-06-26T02:19:34;15.40;70.50
11399;DHT22;5755;48.116;11.608;2023-06-26T02:22:01;15.40;70.10
11399;DHT22;5755;48.116;11.608;2023-06-26T02:24:28;15.30;71.30
11399;DHT22;5755;48.116;11.608;2023-06-26T02:26:57;15.30;71.80
11399;DHT22;5755;48.116;11.608;2023-06-26T02:29:25;15.30;72.30
11399;DHT22;5755;48.116;11.608;2023-06-26T02:31:51;15.30;72.40
11399;DHT22;5755;48.116;11.608;2023-06-26T02:34:20;15.20;72.30
11399;DHT22;5755;48.116;11.608;2023-06-26T02:36:47;15.10;72.40
11399;DHT22;5755;48.116;11.608;2023-06-26T02:39:14;15.10;73.00
11399;DHT22;5755;48.116;11.608;2023-06-26T02:41:41;15.10;73.90
11399;DHT22;5755;48.116;11.608;2023-06-26T02:44:09;15.10;74.10
11399;DHT22;5755;48.116;11.608;2023-06-26T02:46:37;15.10;75.10
11399;DHT22;5755;48.116;11.608;2023-06-26T02:49:04;15.10;76.30
11399;DHT22;5755;48.116;11.608;2023-06-26T02:51:33;15.10;75.20
11399;DHT22;5755;48.116;11.608;2023-06-26T02:54:01;15.10;74.70
11399;DHT22;5755;48.116;11.608;2023-06-26T02:56:28;15.10;74.90
11399;DHT22;5755;48.116;11.608;2023-06-26T02:58:55;15.10;75.30
11399;DHT22;5755;48.116;11.608;2023-06-26T03:01:22;15.10;76.20
11399;DHT22;5755;48.116;11.608;2023-06-26T03:03:49;15.10;77.00
11399;DHT22;5755;48.116;11.608;2023-06-26T03:06:16;15.00;76.30
11399;DHT22;5755;48.116;11.608;2023-06-26T03:08:48;15.00;77.00
11399;DHT22;5755;48.116;11.608;2023-06-26T03:11:15;15.00;77.20
11399;DHT22;5755;48.116;11.608;2023-06-26T03:13:42;15.00;76.90
11399;DHT22;5755;48.116;11.608;2023-06-26T03:16:09;15.00;77.30
11399;DHT22;5755;48.116;11.608;2023-06-26T03:18:36;15.00;77.30
11399;DHT22;5755;48.116;11.608;2023-06-26T03:21:03;15.00;77.30
11399;DHT22;5755;48.116;11.608;2023-06-26T03:23:30;15.00;77.30
11399;DHT22;5755;48.116;11.608;2023-06-26T03:25:59;15.00;77.30
11399;DHT22;5755;48.116;11.608;2023-06-26T03:28:26;15.00;77.20
11399;DHT22;5755;48.116;11.608;2023-06-26T03:30:52;15.00;77.30
11399;DHT22;5755;48.116;11.608;2023-06-26T03:33:19;15.00;76.50
11399;DHT22;5755;48.116;11.608;2023-06-26T03:35:46;15.00;76.70
11399;DHT22;5755;48.116;11.608;2023-06-26T03:38:13;15.00;75.40
11399;DHT22;5755;48.116;11.608;2023-06-26T03:40:40;15.10;75.40
11399;DHT22;5755;48.116;11.608;2023-06-26T03:43:08;15.10;75.40
11399;DHT22;5755;48.116;11.608;2023-06-26T03:45:35;15.00;74.70
11399;DHT22;5755;48.116;11.608;2023-06-26T03:48:03;15.00;74.70
11399;DHT22;5755;48.116;11.608;2023-06-26T03:50:30;15.00;74.10
11399;DHT22;5755;48.116;11.608;2023-06-26T03:52:57;15.00;74.40
11399;DHT22;5755;48.116;11.608;2023-06-26T03:55:24;15.00;74.60
11399;DHT22;5755;48.116;11.608;2023-06-26T03:57:51;15.10;75.50
11399;DHT22;5755;48.116;11.608;2023-06-26T04:00:20;15.10;74.30
11399;DHT22;5755;48.116;11.608;2023-06-26T04:02:47;15.10;74.60
11399;DHT22;5755;48.116;11.608;2023-06-26T04:05:14;15.20;75.90
11399;DHT22;5755;48.116;11.608;2023-06-26T04:07:42;15.20;75.30
11399;DHT22;5755;48.116;11.608;2023-06-26T04:10:09;15.30;74.50
11399;DHT22;5755;48.116;11.608;2023-06-26T04:12:36;15.40;72.30
11399;DHT22;5755;48.116;11.608;2023-06-26T04:15:03;15.40;72.30
11399;DHT22;5755;48.116;11.608;2023-06-26T04:17:32;15.50;72.40
11399;DHT22;5755;48.116;11.608;2023-06-26T04:19:59;15.50;71.30
11399;DHT22;5755;48.116;11.608;2023-06-26T04:22:26;15.50;69.50
11399;DHT22;5755;48.116;11.608;2023-06-26T04:24:53;15.60;69.10
11399;DHT22;5755;48.116;11.608;2023-06-26T04:27:20;15.70;68.40
11399;DHT22;5755;48.116;11.608;2023-06-26T04:29:47;15.70;69.00
11399;DHT22;5755;48.116;11.608;2023-06-26T04:32:14;15.80;70.20
11399;DHT22;5755;48.116;11.608;2023-06-26T04:34:42;15.90;67.80
11399;DHT22;5755;48.116;11.608;2023-06-26T04:37:09;16.00;66.10
11399;DHT22;5755;48.116;11.608;2023-06-26T04:39:36;16.00;66.00
11399;DHT22;5755;48.116;11.608;2023-06-26T04:42:04;16.20;64.40
11399;DHT22;5755;48.116;11.608;2023-06-26T04:44:32;16.30;62.00
11399;DHT22;5755;48.116;11.608;2023-06-26T04:46:59;16.40;59.10
11399;DHT22;5755;48.116;11.608;2023-06-26T04:49:26;16.50;58.40
11399;DHT22;5755;48.116;11.608;2023-06-26T04:51:56;16.60;55.70
11399;DHT22;5755;48.116;11.608;2023-06-26T04:54:26;16.60;55.60
11399;DHT22;5755;48.116;11.608;2023-06-26T04:56:53;16.80;55.70
11399;DHT22;5755;48.116;11.608;2023-06-26T04:59:20;16.80;54.70
11399;DHT22;5755;48.116;11.608;2023-06-26T05:01:46;17.00;53.20
11399;DHT22;5755;48.116;11.608;2023-06-26T05:04:14;17.00;53.20
11399;DHT22;5755;48.116;11.608;2023-06-26T05:06:41;17.20;53.30
11399;DHT22;5755;48.116;11.608;2023-06-26T05:09:10;17.30;53.40
11399;DHT22;5755;48.116;11.608;2023-06-26T05:11:39;17.40;53.60
11399;DHT22;5755;48.116;11.608;2023-06-26T05:14:06;17.50;53.60
11399;DHT22;5755;48.116;11.608;2023-06-26T05:16:34;17.60;52.30
11399;DHT22;5755;48.116;11.608;2023-06-26T05:19:02;17.70;52.60
11399;DHT22;5755;48.116;11.608;2023-06-26T05:21:29;17.80;51.50
11399;DHT22;5755;48.116;11.608;2023-06-26T05:23:57;17.90;51.10
11399;DHT22;5755;48.116;11.608;2023-06-26T05:26:26;18.00;50.60
11399;DHT22;5755;48.116;11.608;2023-06-26T05:28:55;18.10;46.60
11399;DHT22;5755;48.116;11.608;2023-06-26T05:31:22;18.40;47.20
11399;DHT22;5755;48.116;11.608;2023-06-26T05:33:50;18.70;43.20
11399;DHT22;5755;48.116;11.608;2023-06-26T05:36:18;19.00;42.10
11399;DHT22;5755;48.116;11.608;2023-06-26T05:38:47;19.10;40.20
11399;DHT22;5755;48.116;11.608;2023-06-26T05:41:14;19.30;45.00
11399;DHT22;5755;48.116;11.608;2023-06-26T05:43:43;19.70;40.80
11399;DHT22;5755;48.116;11.608;2023-06-26T05:46:10;20.20;41.10
11399;DHT22;5755;48.116;11.608;2023-06-26T05:48:37;20.80;32.80
11399;DHT22;5755;48.116;11.608;2023-06-26T05:51:05;21.40;33.20
11399;DHT22;5755;48.116;11.608;2023-06-26T05:53:32;22.20;27.20
11399;DHT22;5755;48.116;11.608;2023-06-26T05:56:00;22.60;25.40
11399;DHT22;5755;48.116;11.608;2023-06-26T05:58:27;22.50;24.70
11399;DHT22;5755;48.116;11.608;2023-06-26T06:00:55;22.60;24.40
11399;DHT22;5755;48.116;11.608;2023-06-26T06:03:22;22.60;23.20
11399;DHT22;5755;48.116;11.608;2023-06-26T06:05:49;22.20;25.70
11399;DHT22;5755;48.116;11.608;2023-06-26T06:08:16;22.00;24.80
11399;DHT22;5755;48.116;11.608;2023-06-26T06:10:43;21.80;24.40
11399;DHT22;5755;48.116;11.608;2023-06-26T06:13:10;21.60;26.10
11399;DHT22;5755;48.116;11.608;2023-06-26T06:15:37;21.40;27.90
11399;DHT22;5755;48.116;11.608;2023-06-26T06:18:05;21.30;27.50
11399;DHT22;5755;48.116;11.608;2023-06-26T06:20:32;21.30;28.10
11399;DHT22;5755;48.116;11.608;2023-06-26T06:22:59;21.30;26.70
11399;DHT22;5755;48.116;11.608;2023-06-26T06:25:26;21.40;26.60
11399;DHT22;5755;48.116;11.608;2023-06-26T06:27:53;21.40;26.80
11399;DHT22;5755;48.116;11.608;2023-06-26T06:30:20;21.50;26.50
11399;DHT22;5755;48.116;11.608;2023-06-26T06:32:47;21.60;28.70
11399;DHT22;5755;48.116;11.608;2023-06-26T06:35:18;21.70;25.80
11399;DHT22;5755;48.116;11.608;2023-06-26T06:37:45;21.80;25.60
11399;DHT22;5755;48.116;11.608;2023-06-26T06:40:12;21.80;26.60
11399;DHT22;5755;48.116;11.608;2023-06-26T06:42:39;21.90;25.40
11399;DHT22;5755;48.116;11.608;2023-06-26T06:45:07;22.00;24.50
11399;DHT22;5755;48.116;11.608;2023-06-26T06:47:34;22.10;24.50
11399;DHT22;5755;48.116;11.608;2023-06-26T06:50:01;22.30;24.40
11399;DHT22;5755;48.116;11.608;2023-06-26T06:52:35;22.50;23.90
11399;DHT22;5755;48.116;11.608;2023-06-26T06:55:03;22.70;22.50
11399;DHT22;5755;48.116;11.608;2023-06-26T06:57:32;22.80;22.10
11399;DHT22;5755;48.116;11.608;2023-06-26T07:00:03;22.90;22.20
11399;DHT22;5755;48.116;11.608;2023-06-26T07:02:32;23.10;21.20
11399;DHT22;5755;48.116;11.608;2023-06-26T07:04:59;23.10;21.60
11399;DHT22;5755;48.116;11.608;2023-06-26T07:07:28;23.30;20.60
11399;DHT22;5755;48.116;11.608;2023-06-26T07:09:57;23.50;20.50
11399;DHT22;5755;48.116;11.608;2023-06-26T07:12:25;24.30;19.20
11399;DHT22;5755;48.116;11.608;2023-06-26T07:14:51;25.30;16.40
11399;DHT22;5755;48.116;11.608;2023-06-26T07:17:19;26.00;14.60
11399;DHT22;5755;48.116;11.608;2023-06-26T07:19:46;26.40;13.80
11399;DHT22;5755;48.116;11.608;2023-06-26T07:22:13;26.70;13.30
11399;DHT22;5755;48.116;11.608;2023-06-26T07:24:40;26.70;13.30
11399;DHT22;5755;48.116;11.608;2023-06-26T07:27:09;26.70;15.00
11399;DHT22;5755;48.116;11.608;2023-06-26T07:29:36;26.70;14.70
11399;DHT22;5755;48.116;11.608;2023-06-26T07:32:03;26.60;14.90
11399;DHT22;5755;48.116;11.608;2023-06-26T07:34:30;26.40;14.80
11399;DHT22;5755;48.116;11.608;2023-06-26T07:36:57;26.00;14.70
11399;DHT22;5755;48.116;11.608;2023-06-26T07:39:24;25.80;14.50
11399;DHT22;5755;48.116;11.608;2023-06-26T07:41:51;25.60;15.90
11399;DHT22;5755;48.116;11.608;2023-06-26T07:44:19;25.40;17.20
11399;DHT22;5755;48.116;11.608;2023-06-26T07:46:46;25.40;16.50
11399;DHT22;5755;48.116;11.608;2023-06-26T07:49:13;25.40;17.00
11399;DHT22;5755;48.116;11.608;2023-06-26T07:51:40;25.40;17.00
11399;DHT22;5755;48.116;11.608;2023-06-26T07:54:07;25.50;17.10
11399;DHT22;5755;48.116;11.608;2023-06-26T07:56:52;25.50;16.90
11399;DHT22;5755;48.116;11.608;2023-06-26T07:59:21;25.70;16.10
11399;DHT22;5755;48.116;11.608;2023-06-26T08:01:48;25.80;16.20
11399;DHT22;5755;48.116;11.608;2023-06-26T08:04:15;26.00;16.60
11399;DHT22;5755;48.116;11.608;2023-06-26T08:06:43;26.50;14.90
11399;DHT22;5755;48.116;11.608;2023-06-26T08:09:10;26.80;15.10
11399;DHT22;5755;48.116;11.608;2023-06-26T08:11:38;26.90;15.20
11399;DHT22;5755;48.116;11.608;2023-06-26T08:14:04;26.80;15.10
11399;DHT22;5755;48.116;11.608;2023-06-26T08:16:33;26.90;15.10
11399;DHT22;5755;48.116;11.608;2023-06-26T08:19:00;27.10;15.20
11399;DHT22;5755;48.116;11.608;2023-06-26T08:21:27;28.00;14.10
11399;DHT22;5755;48.116;11.608;2023-06-26T08:23:54;29.40;11.10
11399;DHT22;5755;48.116;11.608;2023-06-26T08:26:21;31.00;8.80
11399;DHT22;5755;48.116;11.608;2023-06-26T08:28:48;32.60;7.30
11399;DHT22;5755;48.116;11.608;2023-06-26T08:31:16;33.70;4.70
11399;DHT22;5755;48.116;11.608;2023-06-26T08:33:44;34.20;3.60
11399;DHT22;5755;48.116;11.608;2023-06-26T08:36:13;35.10;2.60
11399;DHT22;5755;48.116;11.608;2023-06-26T08:38:40;35.80;1.20
11399;DHT22;5755;48.116;11.608;2023-06-26T08:41:09;36.10;1.00
11399;DHT22;5755;48.116;11.608;2023-06-26T08:43:36;36.30;1.00
11399;DHT22;5755;48.116;11.608;2023-06-26T08:46:03;36.80;1.00
11399;DHT22;5755;48.116;11.608;2023-06-26T08:48:49;36.70;1.00
11399;DHT22;5755;48.116;11.608;2023-06-26T08:51:34;37.10;1.00
11399;DHT22;5755;48.116;11.608;2023-06-26T08:54:24;37.00;1.00
11399;DHT22;5755;48.116;11.608;2023-06-26T08:57:07;36.60;1.00
11399;DHT22;5755;48.116;11.608;2023-06-26T08:59:36;37.10;1.00
11399;DHT22;5755;48.116;11.608;2023-06-26T09:02:03;37.40;1.00
11399;DHT22;5755;48.116;11.608;2023-06-26T09:04:32;37.30;1.00
11399;DHT22;5755;48.116;11.608;2023-06-26T09:07:01;37.20;1.00
11399;DHT22;5755;48.116;11.608;2023-06-26T09:09:29;37.50;1.00
11399;DHT22;5755;48.116;11.608;2023-06-26T09:11:56;37.20;1.00
11399;DHT22;5755;48.116;11.608;2023-06-26T09:14:23;36.90;1.00
11399;DHT22;5755;48.116;11.608;2023-06-26T09:16:50;36.50;1.00
11399;DHT22;5755;48.116;11.608;2023-06-26T09:19:17;36.30;1.00
11399;DHT22;5755;48.116;11.608;2023-06-26T09:21:50;36.40;1.00
11399;DHT22;5755;48.116;11.608;2023-06-26T09:24:17;37.00;1.00
11399;DHT22;5755;48.116;11.608;2023-06-26T09:26:45;36.60;1.00
11399;DHT22;5755;48.116;11.608;2023-06-26T09:29:13;36.30;1.00
11399;DHT22;5755;48.116;11.608;2023-06-26T09:31:47;36.30;1.00
11399;DHT22;5755;48.116;11.608;2023-06-26T09:34:14;37.00;1.00
11399;DHT22;5755;48.116;11.608;2023-06-26T09:40:13;36.20;1.00
11399;DHT22;5755;48.116;11.608;2023-06-26T09:43:02;35.90;1.00
11399;DHT22;5755;48.116;11.608;2023-06-26T09:45:31;35.50;1.00
11399;DHT22;5755;48.116;11.608;2023-06-26T09:48:00;34.60;1.80
11399;DHT22;5755;48.116;11.608;2023-06-26T09:50:27;34.40;1.40
11399;DHT22;5755;48.116;11.608;2023-06-26T09:52:56;35.00;1.70
11399;DHT22;5755;48.116;11.608;2023-06-26T09:55:24;34.80;1.00
11399;DHT22;5755;48.116;11.608;2023-06-26T09:57:52;34.80;1.00
11399;DHT22;5755;48.116;11.608;2023-06-26T10:00:19;33.90;1.20
11399;DHT22;5755;48.116;11.608;2023-06-26T10:02:46;33.50;1.80
11399;DHT22;5755;48.116;11.608;2023-06-26T10:05:13;33.40;2.10
11399;DHT22;5755;48.116;11.608;2023-06-26T10:07:40;32.90;1.00
11399;DHT22;5755;48.116;11.608;2023-06-26T10:10:10;32.60;1.60
11399;DHT22;5755;48.116;11.608;2023-06-26T10:12:37;33.00;2.30
11399;DHT22;5755;48.116;11.608;2023-06-26T10:15:06;33.40;1.80
11399;DHT22;5755;48.116;11.608;2023-06-26T10:17:39;33.50;3.00
11399;DHT22;5755;48.116;11.608;2023-06-26T10:20:08;34.00;1.00
11399;DHT22;5755;48.116;11.608;2023-06-26T10:22:39;34.20;1.50
11399;DHT22;5755;48.116;11.608;2023-06-26T10:25:10;34.40;1.00
11399;DHT22;5755;48.116;11.608;2023-06-26T10:27:41;34.00;1.00
11399;DHT22;5755;48.116;11.608;2023-06-26T10:30:13;33.30;2.30
11399;DHT22;5755;48.116;11.608;2023-06-26T10:32:41;32.70;1.80
11399;DHT22;5755;48.116;11.608;2023-06-26T10:35:08;32.10;2.10
11399;DHT22;5755;48.116;11.608;2023-06-26T10:37:43;31.60;2.20
11399;DHT22;5755;48.116;11.608;2023-06-26T10:40:13;32.10;2.80
11399;DHT22;5755;48.116;11.608;2023-06-26T10:42:40;32.90;1.50
11399;DHT22;5755;48.116;11.608;2023-06-26T10:45:13;33.50;2.90
11399;DHT22;5755;48.116;11.608;2023-06-26T10:47:41;34.30;1.00
11399;DHT22;5755;48.116;11.608;2023-06-26T10:50:18;34.70;1.00
11399;DHT22;5755;48.116;11.608;2023-06-26T10:52:46;34.80;1.00
11399;DHT22;5755;48.116;11.608;2023-06-26T10:55:35;34.80;1.00
11399;DHT22;5755;48.116;11.608;2023-06-26T10:58:02;34.30;1.00
11399;DHT22;5755;48.116;11.608;2023-06-26T11:00:29;34.60;1.00
11399;DHT22;5755;48.116;11.608;2023-06-26T11:02:57;34.50;1.00
11399;DHT22;5755;48.116;11.608;2023-06-26T11:05:27;33.80;1.40
11399;DHT22;5755;48.116;11.608;2023-06-26T11:08:06;32.70;1.80
11399;DHT22;5755;48.116;11.608;2023-06-26T11:10:55;32.00;2.90
11399;DHT22;5755;48.116;11.608;2023-06-26T11:13:41;32.10;3.00
11399;DHT22;5755;48.116;11.608;2023-06-26T11:16:08;32.10;4.10
11399;DHT22;5755;48.116;11.608;2023-06-26T11:18:35;32.00;4.50
11399;DHT22;5755;48.116;11.608;2023-06-26T11:21:06;31.50;3.20
11399;DHT22;5755;48.116;11.608;2023-06-26T11:23:34;31.50;4.40
11399;DHT22;5755;48.116;11.608;2023-06-26T11:26:16;31.60;4.60
11399;DHT22;5755;48.116;11.608;2023-06-26T11:28:50;31.50;5.30
11399;DHT22;5755;48.116;11.608;2023-06-26T11:31:24;31.50;4.30
11399;DHT22;5755;48.116;11.608;2023-06-26T11:33:51;31.30;4.60
11399;DHT22;5755;48.116;11.608;2023-06-26T11:36:18;30.90;4.30
11399;DHT22;5755;48.116;11.608;2023-06-26T11:38:45;30.70;5.60
11399;DHT22;5755;48.116;11.608;2023-06-26T11:41:18;30.50;4.80
11399;DHT22;5755;48.116;11.608;2023-06-26T11:43:45;30.30;5.30
11399;DHT22;5755;48.116;11.608;2023-06-26T11:46:12;30.10;6.80
11399;DHT22;5755;48.116;11.608;2023-06-26T11:48:39;30.00;6.30
11399;DHT22;5755;48.116;11.608;2023-06-26T11:51:05;30.10;6.60
11399;DHT22;5755;48.116;11.608;2023-06-26T11:53:39;30.40;7.10
11399;DHT22;5755;48.116;11.608;2023-06-26T11:56:10;30.70;7.40
11399;DHT22;5755;48.116;11.608;2023-06-26T12:01:42;30.90;6.20
11399;DHT22;5755;48.116;11.608;2023-06-26T12:04:12;30.90;7.20
11399;DHT22;5755;48.116;11.608;2023-06-26T12:06:40;31.20;6.20
11399;DHT22;5755;48.116;11.608;2023-06-26T12:09:09;30.90;5.90
11399;DHT22;5755;48.116;11.608;2023-06-26T12:11:37;30.60;6.70
11399;DHT22;5755;48.116;11.608;2023-06-26T12:14:05;30.90;7.00
11399;DHT22;5755;48.116;11.608;2023-06-26T12:16:33;31.20;5.00
11399;DHT22;5755;48.116;11.608;2023-06-26T12:19:03;31.40;4.80
11399;DHT22;5755;48.116;11.608;2023-06-26T12:21:47;31.40;5.30
11399;DHT22;5755;48.116;11.608;2023-06-26T12:24:18;31.40;5.20
11399;DHT22;5755;48.116;11.608;2023-06-26T12:26:46;31.30;5.30
11399;DHT22;5755;48.116;11.608;2023-06-26T12:29:17;31.00;4.20
11399;DHT22;5755;48.116;11.608;2023-06-26T12:31:46;30.50;4.90
11399;DHT22;5755;48.116;11.608;2023-06-26T12:34:20;30.50;6.90
11399;DHT22;5755;48.116;11.608;2023-06-26T12:36:48;30.90;6.50
11399;DHT22;5755;48.116;11.608;2023-06-26T12:39:16;31.20;6.80
11399;DHT22;5755;48.116;11.608;2023-06-26T12:41:52;31.30;5.60
11399;DHT22;5755;48.116;11.608;2023-06-26T12:44:20;31.20;6.00
11399;DHT22;5755;48.116;11.608;2023-06-26T12:46:48;30.80;6.40
11399;DHT22;5755;48.116;11.608;2023-06-26T12:49:17;30.50;6.50
11399;DHT22;5755;48.116;11.608;2023-06-26T12:51:45;30.60;6.30
11399;DHT22;5755;48.116;11.608;2023-06-26T12:54:12;30.90;5.20
11399;DHT22;5755;48.116;11.608;2023-06-26T12:56:39;31.10;5.10
11399;DHT22;5755;48.116;11.608;2023-06-26T12:59:06;30.90;5.70
11399;DHT22;5755;48.116;11.608;2023-06-26T13:01:33;31.10;5.80
11399;DHT22;5755;48.116;11.608;2023-06-26T13:04:00;31.10;5.60
11399;DHT22;5755;48.116;11.608;2023-06-26T13:06:28;31.00;4.30
11399;DHT22;5755;48.116;11.608;2023-06-26T13:09:09;30.90;4.00
11399;DHT22;5755;48.116;11.608;2023-06-26T13:11:37;30.60;5.00
11399;DHT22;5755;48.116;11.608;2023-06-26T13:16:40;30.70;5.60
11399;DHT22;5755;48.116;11.608;2023-06-26T13:19:08;30.80;6.70
11399;DHT22;5755;48.116;11.608;2023-06-26T13:21:38;30.80;5.10
11399;DHT22;5755;48.116;11.608;2023-06-26T13:26:41;30.80;5.60
11399;DHT22;5755;48.116;11.608;2023-06-26T13:29:07;30.60;5.90
11399;DHT22;5755;48.116;11.608;2023-06-26T13:34:20;30.50;7.90
11399;DHT22;5755;48.116;11.608;2023-06-26T13:39:47;31.00;5.90
11399;DHT22;5755;48.116;11.608;2023-06-26T13:42:18;30.90;6.00
11399;DHT22;5755;48.116;11.608;2023-06-26T13:44:45;30.90;6.50
11399;DHT22;5755;48.116;11.608;2023-06-26T13:47:13;31.00;5.20
11399;DHT22;5755;48.116;11.608;2023-06-26T13:49:42;31.10;5.70
11399;DHT22;5755;48.116;11.608;2023-06-26T13:52:09;30.90;6.60
11399;DHT22;5755;48.116;11.608;2023-06-26T14:02:24;30.00;7.00
11399;DHT22;5755;48.116;11.608;2023-06-26T14:04:52;29.80;7.50
11399;DHT22;5755;48.116;11.608;2023-06-26T14:07:19;29.70;7.90
11399;DHT22;5755;48.116;11.608;2023-06-26T14:09:46;29.60;7.90
11399;DHT22;5755;48.116;11.608;2023-06-26T14:17:10;30.30;7.60
11399;DHT22;5755;48.116;11.608;2023-06-26T14:19:43;30.50;7.30
11399;DHT22;5755;48.116;11.608;2023-06-26T14:22:11;30.70;6.30
11399;DHT22;5755;48.116;11.608;2023-06-26T14:24:38;30.80;6.20
11399;DHT22;5755;48.116;11.608;2023-06-26T14:27:04;30.80;6.90
11399;DHT22;5755;48.116;11.608;2023-06-26T14:29:31;30.60;6.60
11399;DHT22;5755;48.116;11.608;2023-06-26T14:31:58;30.50;7.40
11399;DHT22;5755;48.116;11.608;2023-06-26T14:34:25;30.70;6.30
11399;DHT22;5755;48.116;11.608;2023-06-26T14:36:53;30.70;6.30
11399;DHT22;5755;48.116;11.608;2023-06-26T14:39:20;30.80;6.60
11399;DHT22;5755;48.116;11.608;2023-06-26T14:41:47;30.70;6.30
11399;DHT22;5755;48.116;11.608;2023-06-26T14:44:15;30.50;7.30
11399;DHT22;5755;48.116;11.608;2023-06-26T14:46:42;30.50;7.30
11399;DHT22;5755;48.116;11.608;2023-06-26T14:49:09;30.40;7.20
11399;DHT22;5755;48.116;11.608;2023-06-26T14:51:36;30.60;7.30
11399;DHT22;5755;48.116;11.608;2023-06-26T14:54:06;30.80;7.40
11399;DHT22;5755;48.116;11.608;2023-06-26T14:56:34;30.70;7.40
11399;DHT22;5755;48.116;11.608;2023-06-26T15:01:36;30.70;6.50
11399;DHT22;5755;48.116;11.608;2023-06-26T15:04:03;30.80;7.90
11399;DHT22;5755;48.116;11.608;2023-06-26T15:06:30;30.70;6.70
11399;DHT22;5755;48.116;11.608;2023-06-26T15:08:58;30.50;6.30
11399;DHT22;5755;48.116;11.608;2023-06-26T15:11:26;30.50;7.00
11399;DHT22;5755;48.116;11.608;2023-06-26T15:13:54;30.50;7.40
11399;DHT22;5755;48.116;11.608;2023-06-26T15:16:21;30.40;7.20
11399;DHT22;5755;48.116;11.608;2023-06-26T15:18:48;30.30;7.20
11399;DHT22;5755;48.116;11.608;2023-06-26T15:21:15;30.20;7.20
11399;DHT22;5755;48.116;11.608;2023-06-26T15:23:42;30.10;7.30
11399;DHT22;5755;48.116;11.608;2023-06-26T15:26:09;30.10;9.10
11399;DHT22;5755;48.116;11.608;2023-06-26T15:28:39;30.00;7.00
11399;DHT22;5755;48.116;11.608;2023-06-26T15:31:06;29.90;7.00
11399;DHT22;5755;48.116;11.608;2023-06-26T15:33:33;29.80;6.90
11399;DHT22;5755;48.116;11.608;2023-06-26T15:36:00;29.70;7.50
11399;DHT22;5755;48.116;11.608;2023-06-26T15:38:29;29.60;7.30
11399;DHT22;5755;48.116;11.608;2023-06-26T15:40:56;29.40;7.50
11399;DHT22;5755;48.116;11.608;2023-06-26T15:43:22;29.40;8.10
11399;DHT22;5755;48.116;11.608;2023-06-26T15:45:51;29.20;9.00
11399;DHT22;5755;48.116;11.608;2023-06-26T15:48:17;29.00;9.00
11399;DHT22;5755;48.116;11.608;2023-06-26T15:50:46;29.00;9.00
11399;DHT22;5755;48.116;11.608;2023-06-26T15:53:16;28.90;9.90
11399;DHT22;5755;48.116;11.608;2023-06-26T15:55:43;28.80;9.40
11399;DHT22;5755;48.116;11.608;2023-06-26T15:58:10;28.70;10.20
11399;DHT22;5755;48.116;11.608;2023-06-26T16:00:37;28.60;11.80
11399;DHT22;5755;48.116;11.608;2023-06-26T16:03:05;28.50;11.10
11399;DHT22;5755;48.116;11.608;2023-06-26T16:05:32;28.40;11.40
11399;DHT22;5755;48.116;11.608;2023-06-26T16:07:59;28.40;11.40
11399;DHT22;5755;48.116;11.608;2023-06-26T16:10:26;28.40;11.60
11399;DHT22;5755;48.116;11.608;2023-06-26T16:12:54;28.30;13.40
11399;DHT22;5755;48.116;11.608;2023-06-26T16:15:21;28.10;13.50
11399;DHT22;5755;48.116;11.608;2023-06-26T16:17:48;28.00;15.00